Time;durP1;ratioP1;P1;durP2;ratioP2;P2;SDS_P1;SDS_P2;PMS_P1;PMS_P2;Temp;Humidity;BMP_temperature;BMP_pressure;BME280_temperature;BME280_humidity;BME280_pressure;Samples;Min_cycle;Max_cycle;Signal;HPM_P1;HPM_P2
2022/02/11 00:00:50;;;;;;;90.95;46.05;;;8.20;99.90;;;;;;6184341;23;20004;-80
2022/02/11 00:08:17;;;;;;;88.05;47.25;;;8.20;99.90;;;;;;6184302;23;20009;-79
2022/02/11 00:10:43;;;;;;;90.15;47.42;;;8.30;99.90;;;;;;6157744;23;20012;-80
2022/02/11 00:13:09;;;;;;;92.03;47.28;;;8.30;99.90;;;;;;6183992;23;20425;-81
2022/02/11 00:15:42;;;;;;;85.88;47.95;;;8.20;99.90;;;;;;6184110;23;20015;-80
2022/02/11 00:18:14;;;;;;;96.30;47.78;;;8.20;99.90;;;;;;6183935;23;20012;-80
2022/02/11 00:20:40;;;;;;;90.82;46.65;;;8.20;99.90;;;;;;6183906;23;20328;-80
2022/02/11 00:23:06;;;;;;;94.68;47.95;;;8.20;99.90;;;;;;6184134;23;20448;-80
2022/02/11 00:25:42;;;;;;;88.55;46.30;;;8.20;99.90;;;;;;6184223;23;19997;-81
2022/02/11 00:33:28;;;;;;;88.10;45.35;;;8.20;99.90;;;;;;6185635;23;20009;-81
2022/02/11 00:36:04;;;;;;;90.20;47.20;;;8.20;99.90;;;;;;6183964;23;20001;-80
2022/02/11 01:02:59;;;;;;;90.72;43.45;;;8.20;99.90;;;;;;6183871;23;20084;-73
2022/02/11 01:05:25;;;;;;;76.65;41.22;;;8.20;99.90;;;;;;6183690;23;19997;-73
2022/02/11 01:07:50;;;;;;;79.68;40.65;;;8.20;99.90;;;;;;6183562;23;20008;-73
2022/02/11 01:10:18;;;;;;;82.63;40.40;;;8.20;99.90;;;;;;6183731;23;20449;-73
2022/02/11 01:12:44;;;;;;;75.40;39.50;;;8.20;99.90;;;;;;6183461;23;20026;-73
2022/02/11 01:15:11;;;;;;;69.97;38.83;;;8.20;99.90;;;;;;6183623;23;20005;-73
2022/02/11 01:17:45;;;;;;;72.30;37.85;;;8.20;99.90;;;;;;6181458;23;20005;-73
2022/02/11 01:20:20;;;;;;;68.82;37.15;;;8.20;99.90;;;;;;6182210;23;20008;-73
2022/02/11 01:47:20;;;;;;;65.82;37.50;;;8.20;99.90;;;;;;6181140;23;20096;-73
2022/02/11 02:34:34;;;;;;;74.40;38.70;;;8.10;99.90;;;;;;6183941;23;20009;-73
2022/02/11 02:43:26;;;;;;;68.43;38.35;;;8.00;99.90;;;;;;6185065;23;20005;-73
2022/02/11 02:50:47;;;;;;;78.93;39.95;;;7.90;99.90;;;;;;6184777;23;20057;-73
2022/02/11 02:58:57;;;;;;;79.72;41.92;;;7.90;99.90;;;;;;6184720;23;20094;-73
2022/02/11 03:51:41;;;;;;;82.50;41.83;;;7.60;99.90;;;;;;6154135;23;20021;-73
2022/02/11 04:55:51;;;;;;;70.65;39.20;;;6.80;99.90;;;;;;6183700;23;20492;-73
2022/02/11 05:01:01;;;;;;;75.35;40.33;;;6.80;99.90;;;;;;6183491;23;20060;-73
2022/02/11 05:03:27;;;;;;;76.32;39.35;;;6.90;99.90;;;;;;6183661;23;20032;-73
2022/02/11 05:05:53;;;;;;;69.88;39.05;;;6.80;99.90;;;;;;6183493;23;19997;-73
2022/02/11 05:08:23;;;;;;;76.80;41.30;;;6.90;99.90;;;;;;6183630;23;20001;-73
2022/02/11 05:10:51;;;;;;;72.95;38.80;;;6.80;99.90;;;;;;6183395;23;20464;-73
2022/02/11 05:13:17;;;;;;;76.10;40.08;;;6.90;99.90;;;;;;6183611;23;20016;-73
2022/02/11 05:15:44;;;;;;;76.05;38.60;;;6.90;99.90;;;;;;6183439;23;20059;-73
2022/02/11 05:18:10;;;;;;;76.75;39.65;;;6.90;99.90;;;;;;6183262;23;20092;-73
2022/02/11 05:20:38;;;;;;;76.28;39.00;;;6.80;99.90;;;;;;6157094;23;20005;-73
2022/02/11 05:23:09;;;;;;;69.90;37.08;;;6.90;99.90;;;;;;6183656;23;20002;-73
2022/02/11 05:25:37;;;;;;;73.45;38.70;;;6.80;99.90;;;;;;6156983;23;20005;-73
2022/02/11 05:28:07;;;;;;;80.30;40.83;;;6.80;99.90;;;;;;6157053;23;20031;-73
2022/02/11 05:30:33;;;;;;;76.18;37.30;;;6.90;99.90;;;;;;6183228;23;20245;-73
2022/02/11 05:33:03;;;;;;;80.05;39.75;;;6.80;99.90;;;;;;6183314;23;20079;-73
2022/02/11 05:35:29;;;;;;;78.25;41.75;;;6.80;99.90;;;;;;6183602;23;20001;-73
2022/02/11 05:37:55;;;;;;;79.15;41.47;;;6.80;99.90;;;;;;6182753;23;20001;-74
2022/02/11 05:40:21;;;;;;;81.32;41.72;;;6.90;99.90;;;;;;6183461;23;20381;-73
2022/02/11 05:42:47;;;;;;;82.20;39.38;;;6.80;99.90;;;;;;6182725;23;19997;-74
2022/02/11 05:45:13;;;;;;;78.15;40.05;;;6.90;99.90;;;;;;6182017;23;20009;-73
2022/02/11 05:47:38;;;;;;;73.03;39.85;;;6.80;99.90;;;;;;6155619;23;20060;-73
2022/02/11 05:50:04;;;;;;;85.13;41.55;;;6.80;99.90;;;;;;6181802;23;20008;-73
2022/02/11 05:52:31;;;;;;;83.38;40.67;;;6.80;99.90;;;;;;6155732;23;20016;-73
2022/02/11 05:54:57;;;;;;;76.07;39.40;;;6.80;99.90;;;;;;6181931;23;20036;-73
2022/02/11 05:57:23;;;;;;;71.10;40.17;;;6.90;99.90;;;;;;6182405;23;20001;-73
2022/02/11 05:59:52;;;;;;;79.40;37.83;;;6.80;99.90;;;;;;6183205;23;20001;-73
2022/02/11 06:02:18;;;;;;;73.63;38.25;;;6.80;99.90;;;;;;6157035;23;20009;-73
2022/02/11 06:04:44;;;;;;;78.20;39.58;;;6.80;99.90;;;;;;6183413;23;20425;-73
2022/02/11 06:07:09;;;;;;;76.85;39.53;;;6.80;99.90;;;;;;6183281;23;20012;-73
2022/02/11 06:09:35;;;;;;;71.45;36.88;;;6.80;99.90;;;;;;6183705;23;20001;-73
2022/02/11 06:12:01;;;;;;;76.65;40.22;;;6.80;99.90;;;;;;6184902;23;20222;-73
2022/02/11 06:14:27;;;;;;;76.18;39.85;;;6.80;99.90;;;;;;6185205;23;20005;-73
2022/02/11 06:16:52;;;;;;;76.90;40.05;;;6.80;99.90;;;;;;6158471;23;20012;-73
2022/02/11 06:19:18;;;;;;;75.65;40.08;;;6.90;99.90;;;;;;6158533;23;20001;-73
2022/02/11 06:21:44;;;;;;;79.22;39.85;;;6.90;99.90;;;;;;6183074;23;20460;-73
2022/02/11 06:24:10;;;;;;;81.63;41.05;;;6.90;99.90;;;;;;6182984;23;20063;-73
2022/02/11 06:26:36;;;;;;;81.53;39.33;;;6.90;99.90;;;;;;6182985;23;20168;-73
2022/02/11 06:29:02;;;;;;;83.93;40.55;;;6.90;99.90;;;;;;6182781;23;20001;-73
2022/02/11 06:31:28;;;;;;;75.40;38.85;;;6.90;99.90;;;;;;6156596;23;20032;-73
2022/02/11 06:33:54;;;;;;;76.10;40.92;;;6.90;99.90;;;;;;6183048;23;20001;-73
2022/02/11 06:36:20;;;;;;;78.55;40.78;;;6.90;99.90;;;;;;6183358;23;20507;-73
2022/02/11 06:38:46;;;;;;;85.18;40.35;;;6.90;99.90;;;;;;6184983;23;20008;-73
2022/02/11 06:41:12;;;;;;;82.28;41.00;;;6.90;99.90;;;;;;6184958;23;20048;-73
2022/02/11 06:43:38;;;;;;;81.38;41.60;;;6.90;99.90;;;;;;6184528;23;20021;-73
2022/02/11 06:46:04;;;;;;;80.53;41.22;;;6.90;99.90;;;;;;6185085;23;20017;-73
2022/02/11 06:48:31;;;;;;;81.75;40.67;;;6.90;99.90;;;;;;6184877;23;20008;-73
2022/02/11 06:50:58;;;;;;;83.85;41.78;;;6.90;99.90;;;;;;6184693;23;20009;-73
2022/02/11 06:53:24;;;;;;;76.40;40.03;;;6.90;99.90;;;;;;6184712;23;20337;-73
2022/02/11 06:55:50;;;;;;;86.35;42.33;;;7.00;99.90;;;;;;6184843;23;20001;-73
2022/02/11 06:58:16;;;;;;;71.85;39.20;;;6.90;99.90;;;;;;6184620;23;20217;-73
2022/02/11 07:00:47;;;;;;;74.45;38.75;;;6.90;99.90;;;;;;6184548;23;20008;-73
2022/02/11 07:03:13;;;;;;;81.22;39.05;;;6.90;99.90;;;;;;6184798;23;20004;-73
2022/02/11 07:05:40;;;;;;;79.57;41.00;;;6.90;99.90;;;;;;6184901;23;20032;-73
2022/02/11 07:08:07;;;;;;;79.88;41.20;;;7.00;99.90;;;;;;6184408;23;20011;-73
2022/02/11 07:10:33;;;;;;;78.97;40.10;;;7.00;99.90;;;;;;6157875;23;20008;-73
2022/02/11 07:12:59;;;;;;;84.93;39.30;;;7.00;99.90;;;;;;6184800;23;20337;-73
2022/02/11 07:15:25;;;;;;;74.75;39.60;;;7.00;99.90;;;;;;6184630;23;20001;-73
2022/02/11 07:17:50;;;;;;;76.80;39.47;;;7.10;99.90;;;;;;6184318;23;20015;-74
2022/02/11 07:20:17;;;;;;;87.30;41.03;;;7.10;99.90;;;;;;6184515;23;20072;-73
2022/02/11 07:22:43;;;;;;;83.13;41.33;;;7.10;99.90;;;;;;6185005;23;20072;-73
2022/02/11 07:25:14;;;;;;;79.75;41.78;;;7.10;99.90;;;;;;6185910;23;20028;-73
2022/02/11 07:27:40;;;;;;;87.70;41.90;;;7.10;99.90;;;;;;6185649;23;20001;-73
2022/02/11 07:30:08;;;;;;;76.45;41.17;;;7.20;99.90;;;;;;6185810;23;20059;-73
2022/02/11 07:32:35;;;;;;;76.72;41.05;;;7.20;99.90;;;;;;6159054;23;20016;-73
2022/02/11 07:35:02;;;;;;;87.00;43.25;;;7.20;99.90;;;;;;6185300;23;20008;-73
2022/02/11 07:37:30;;;;;;;76.43;41.25;;;7.20;99.90;;;;;;6159010;23;20015;-73
2022/02/11 07:39:58;;;;;;;79.22;42.35;;;7.20;99.90;;;;;;6185353;23;20027;-73
2022/02/11 07:42:25;;;;;;;79.95;41.28;;;7.30;99.90;;;;;;6185812;23;20023;-73
2022/02/11 07:44:51;;;;;;;80.28;42.95;;;7.30;99.90;;;;;;6185468;23;20009;-73
2022/02/11 07:47:17;;;;;;;92.38;44.80;;;7.30;99.90;;;;;;6185400;23;20005;-73
2022/02/11 07:49:43;;;;;;;86.65;41.67;;;7.30;99.90;;;;;;6184555;23;20008;-73
2022/02/11 07:52:10;;;;;;;83.25;42.95;;;7.40;99.90;;;;;;6159026;23;20005;-74
2022/02/11 07:54:36;;;;;;;82.13;41.22;;;7.40;99.90;;;;;;6185545;23;20016;-73
2022/02/11 07:57:01;;;;;;;85.43;43.17;;;7.50;99.90;;;;;;6185570;23;20009;-73
2022/02/11 07:59:27;;;;;;;82.25;42.70;;;7.50;99.90;;;;;;6159076;23;20001;-73
2022/02/11 08:01:53;;;;;;;81.55;44.15;;;7.50;99.90;;;;;;6185180;23;20080;-73
2022/02/11 08:04:18;;;;;;;90.50;44.35;;;7.50;99.90;;;;;;6158968;23;20394;-73
2022/02/11 08:06:44;;;;;;;84.25;43.83;;;7.60;99.90;;;;;;6185538;23;20309;-73
2022/02/11 08:09:10;;;;;;;87.75;42.65;;;7.60;99.90;;;;;;6158639;23;20012;-73
2022/02/11 08:11:36;;;;;;;85.30;41.30;;;7.60;99.90;;;;;;6158628;23;20426;-73
2022/02/11 08:14:02;;;;;;;72.95;40.67;;;7.60;99.90;;;;;;6185514;23;20005;-73
2022/02/11 08:16:28;;;;;;;85.40;44.35;;;7.70;99.90;;;;;;6155568;23;20056;-73
2022/02/11 08:18:54;;;;;;;81.50;40.50;;;7.70;99.90;;;;;;6180634;23;20314;-74
2022/02/11 08:21:21;;;;;;;75.93;40.92;;;7.80;99.90;;;;;;6179510;23;19997;-80
2022/02/11 08:23:47;;;;;;;81.03;44.50;;;7.80;99.90;;;;;;6176816;23;20008;-80
2022/02/11 08:26:14;;;;;;;85.90;42.58;;;7.80;99.90;;;;;;6177914;23;20293;-80
2022/02/11 08:28:40;;;;;;;85.50;44.60;;;7.90;99.90;;;;;;6177080;23;20001;-80
2022/02/11 08:31:06;;;;;;;86.28;45.15;;;7.90;99.90;;;;;;6151352;23;20005;-80
2022/02/11 08:33:31;;;;;;;85.97;46.28;;;8.00;99.90;;;;;;6178677;23;20008;-81
2022/02/11 08:36:01;;;;;;;91.50;45.42;;;8.00;99.90;;;;;;6176677;23;20016;-80
2022/02/11 08:38:27;;;;;;;87.13;44.20;;;8.10;99.90;;;;;;6177156;23;20085;-80
2022/02/11 08:40:53;;;;;;;86.15;46.78;;;8.10;99.90;;;;;;6180220;23;20012;-80
2022/02/11 08:43:21;;;;;;;108.38;52.20;;;8.10;99.90;;;;;;6182459;23;20079;-74
2022/02/11 08:45:48;;;;;;;104.15;52.67;;;8.20;99.90;;;;;;6182539;23;20001;-74
2022/02/11 08:48:15;;;;;;;104.32;54.53;;;8.20;99.90;;;;;;6157616;23;20009;-74
2022/02/11 08:50:43;;;;;;;94.03;51.67;;;8.20;99.90;;;;;;6183537;23;20012;-74
2022/02/11 08:53:10;;;;;;;100.97;52.47;;;8.30;99.90;;;;;;6183932;23;20055;-74
2022/02/11 08:55:39;;;;;;;101.18;53.45;;;8.30;99.90;;;;;;6156815;23;20385;-73
2022/02/11 08:58:05;;;;;;;102.18;51.85;;;8.30;99.90;;;;;;6183587;23;20075;-73
2022/02/11 09:00:31;;;;;;;102.13;52.85;;;8.40;99.90;;;;;;6156942;23;20077;-74
2022/02/11 09:02:58;;;;;;;100.60;49.45;;;8.40;99.90;;;;;;6157129;23;20062;-73
2022/02/11 09:05:26;;;;;;;111.63;52.53;;;8.40;99.90;;;;;;6183344;23;19997;-73
2022/02/11 09:07:56;;;;;;;116.03;53.78;;;8.50;99.90;;;;;;6183459;23;20025;-73
2022/02/11 09:10:23;;;;;;;105.97;51.63;;;8.50;99.90;;;;;;6183299;23;20001;-74
2022/02/11 09:12:49;;;;;;;99.00;50.38;;;8.50;99.90;;;;;;6183312;23;20429;-73
2022/02/11 09:15:15;;;;;;;112.07;52.58;;;8.60;99.90;;;;;;6156973;23;20060;-73
2022/02/11 09:17:41;;;;;;;116.80;54.33;;;8.60;99.90;;;;;;6183503;23;20009;-73
2022/02/11 09:20:08;;;;;;;112.90;55.38;;;8.70;99.90;;;;;;6157004;23;20005;-73
2022/02/11 09:22:33;;;;;;;110.88;54.20;;;8.70;99.90;;;;;;6157349;23;20005;-74
2022/02/11 09:24:59;;;;;;;108.60;54.55;;;8.70;99.90;;;;;;6156841;23;20437;-74
2022/02/11 09:27:25;;;;;;;115.38;55.42;;;8.80;99.90;;;;;;6183460;23;20036;-73
2022/02/11 09:29:51;;;;;;;113.93;57.05;;;8.70;99.90;;;;;;6156757;23;20005;-74
2022/02/11 09:32:17;;;;;;;116.82;56.45;;;8.80;99.90;;;;;;6150462;23;20533;-74
2022/02/11 09:34:43;;;;;;;123.60;56.60;;;8.80;99.90;;;;;;6152070;23;20068;-74
2022/02/11 09:37:09;;;;;;;118.20;57.70;;;8.80;99.90;;;;;;6177194;23;20051;-73
2022/02/11 09:39:35;;;;;;;123.40;58.65;;;8.80;99.90;;;;;;6178271;23;19997;-74
2022/02/11 09:42:01;;;;;;;116.35;58.22;;;8.80;99.90;;;;;;6177628;23;20001;-73
2022/02/11 09:44:28;;;;;;;116.93;54.67;;;8.90;99.90;;;;;;6130924;23;20532;-73
2022/02/11 09:46:55;;;;;;;108.30;53.72;;;8.90;99.90;;;;;;6123126;23;20341;-74
2022/02/11 09:49:22;;;;;;;112.80;55.72;;;9.00;99.90;;;;;;6149670;23;20442;-73
2022/02/11 09:51:57;;;;;;;112.63;54.63;;;9.00;99.90;;;;;;6145843;23;20005;-74
2022/02/11 09:54:24;;;;;;;105.00;53.38;;;9.00;99.90;;;;;;6148474;23;20009;-74
2022/02/11 09:56:50;;;;;;;104.97;51.63;;;9.10;99.90;;;;;;6148651;23;20060;-74
2022/02/11 09:59:17;;;;;;;102.53;51.67;;;9.10;99.90;;;;;;6123556;23;20001;-74
2022/02/11 10:01:44;;;;;;;112.28;51.45;;;9.20;99.90;;;;;;6122595;23;20032;-75
2022/02/11 10:04:11;;;;;;;103.22;49.58;;;9.30;99.90;;;;;;6148658;23;20025;-74
2022/02/11 10:06:37;;;;;;;108.93;51.47;;;9.30;99.90;;;;;;6150059;23;20025;-73
2022/02/11 10:09:05;;;;;;;105.70;50.50;;;9.30;99.90;;;;;;6150987;23;20481;-73
2022/02/11 10:11:32;;;;;;;101.95;51.38;;;9.30;99.90;;;;;;6123613;23;20338;-73
2022/02/11 10:14:36;;;;;;;99.05;49.38;;;9.30;99.90;;;;;;6124165;23;20002;-74
2022/02/11 10:17:05;;;;;;;105.93;50.10;;;9.30;99.90;;;;;;6150324;23;20405;-74
2022/02/11 10:19:41;;;;;;;99.93;49.90;;;9.40;99.90;;;;;;6149934;23;20648;-73
2022/02/11 10:22:17;;;;;;;103.68;51.67;;;9.40;99.90;;;;;;6123753;23;20536;-74
2022/02/11 10:24:43;;;;;;;106.60;50.67;;;9.40;99.90;;;;;;6149805;23;20001;-74
2022/02/11 10:27:32;;;;;;;99.65;49.63;;;9.40;99.90;;;;;;6150153;23;20009;-74
2022/02/11 10:30:07;;;;;;;104.18;50.30;;;9.50;99.90;;;;;;6123524;23;20089;-74
2022/02/11 10:32:48;;;;;;;101.13;48.88;;;9.50;99.90;;;;;;6124164;23;20013;-74
2022/02/11 10:35:16;;;;;;;107.60;51.75;;;9.50;99.90;;;;;;6150503;23;20052;-73
2022/02/11 10:38:04;;;;;;;100.28;50.67;;;9.50;99.90;;;;;;6150621;23;20006;-74
2022/02/11 10:40:32;;;;;;;103.75;52.65;;;9.60;99.90;;;;;;6124595;23;20064;-73
2022/02/11 10:42:57;;;;;;;102.75;49.95;;;9.70;99.90;;;;;;6152349;23;20005;-74
2022/02/11 10:45:41;;;;;;;96.60;49.88;;;9.70;99.90;;;;;;6153123;23;20491;-74
2022/02/11 10:48:11;;;;;;;109.47;52.88;;;9.70;99.90;;;;;;6180407;23;20001;-74
2022/02/11 10:50:38;;;;;;;105.70;51.60;;;9.70;99.90;;;;;;6179470;23;20728;-73
2022/02/11 10:53:04;;;;;;;126.95;52.78;;;9.70;99.90;;;;;;6179068;23;20079;-74
2022/02/11 10:55:29;;;;;;;122.85;54.95;;;9.70;99.90;;;;;;6179545;23;20460;-74
2022/02/11 10:57:58;;;;;;;112.75;54.90;;;9.70;99.90;;;;;;6178924;23;20009;-74
2022/02/11 11:00:24;;;;;;;106.97;50.85;;;9.80;99.90;;;;;;6179683;23;20008;-74
2022/02/11 11:02:50;;;;;;;108.60;51.85;;;9.80;99.90;;;;;;6180033;23;20028;-73
2022/02/11 11:05:18;;;;;;;113.95;53.08;;;9.90;99.90;;;;;;6179300;23;20322;-74
2022/02/11 11:07:47;;;;;;;98.32;50.45;;;9.90;99.90;;;;;;6180005;23;20005;-75
2022/02/11 11:10:14;;;;;;;111.95;51.78;;;9.90;99.90;;;;;;6180306;23;20420;-74
2022/02/11 11:12:54;;;;;;;112.55;53.55;;;9.90;99.90;;;;;;6179073;23;20005;-74
2022/02/11 11:15:22;;;;;;;101.15;51.38;;;9.90;99.90;;;;;;6178697;23;20052;-74
2022/02/11 11:17:51;;;;;;;112.07;51.30;;;9.90;99.90;;;;;;6179115;23;20005;-74
2022/02/11 11:20:20;;;;;;;105.53;51.03;;;10.00;99.90;;;;;;6180100;23;20008;-74
2022/02/11 11:22:53;;;;;;;99.55;51.50;;;10.00;99.90;;;;;;6179054;23;20012;-74
2022/02/11 11:25:19;;;;;;;116.68;50.95;;;10.10;99.90;;;;;;6152412;23;20083;-74
2022/02/11 11:27:52;;;;;;;102.45;52.30;;;10.10;99.90;;;;;;6179810;23;20441;-74
2022/02/11 11:30:27;;;;;;;106.88;52.03;;;10.20;99.90;;;;;;6179918;23;20017;-74
2022/02/11 11:33:05;;;;;;;102.32;53.55;;;10.30;99.90;;;;;;6179782;23;20028;-74
2022/02/11 11:35:31;;;;;;;110.57;51.53;;;10.40;99.90;;;;;;6179069;23;20204;-74
2022/02/11 11:38:38;;;;;;;106.65;52.70;;;10.50;99.90;;;;;;6152184;23;20016;-74
2022/02/11 11:41:14;;;;;;;108.80;55.00;;;10.60;99.90;;;;;;6159162;23;20005;-74
2022/02/11 11:43:43;;;;;;;113.18;54.78;;;10.70;99.90;;;;;;6152117;23;20390;-74
2022/02/11 11:46:18;;;;;;;107.00;54.10;;;10.70;99.90;;;;;;6179464;23;20001;-73
2022/02/11 11:49:05;;;;;;;104.25;53.30;;;10.80;99.90;;;;;;6153337;23;20009;-73
2022/02/11 11:51:51;;;;;;;110.07;54.92;;;10.90;99.90;;;;;;6179105;23;19997;-73
2022/02/11 11:54:22;;;;;;;108.00;54.25;;;11.00;99.90;;;;;;6183572;23;20001;-74
2022/02/11 11:56:57;;;;;;;111.22;54.58;;;11.10;99.90;;;;;;6183799;23;20009;-74
2022/02/11 11:59:26;;;;;;;108.75;53.97;;;11.20;99.90;;;;;;6183862;23;20076;-73
2022/02/11 12:01:59;;;;;;;110.13;53.25;;;11.30;99.90;;;;;;6157263;23;20009;-74
2022/02/11 12:04:27;;;;;;;106.55;55.78;;;11.30;99.90;;;;;;6156810;23;20029;-74
2022/02/11 12:06:57;;;;;;;110.28;55.00;;;11.30;99.90;;;;;;6183347;23;20132;-72
2022/02/11 12:09:27;;;;;;;104.38;52.00;;;11.30;99.90;;;;;;6183377;23;20005;-74
2022/02/11 12:12:01;;;;;;;115.00;55.88;;;11.30;99.90;;;;;;6183615;23;20009;-74
2022/02/11 12:14:29;;;;;;;122.32;57.92;;;11.20;99.90;;;;;;6183801;23;19997;-74
2022/02/11 12:16:55;;;;;;;114.45;55.63;;;11.30;99.90;;;;;;6157023;23;20337;-74
2022/02/11 12:19:21;;;;;;;111.75;55.58;;;11.30;99.90;;;;;;6183273;23;20031;-74
2022/02/11 12:21:47;;;;;;;112.28;55.83;;;11.40;99.90;;;;;;6183332;23;19993;-74
2022/02/11 12:30:07;;;;;;;114.93;53.75;;;11.40;99.90;;;;;;6183528;23;20047;-74
2022/02/11 12:32:40;;;;;;;107.32;53.33;;;11.30;99.90;;;;;;6161739;23;20043;-74
2022/02/11 12:35:08;;;;;;;115.93;57.42;;;11.30;99.90;;;;;;6183422;23;20012;-74
2022/02/11 12:37:34;;;;;;;103.80;54.70;;;11.30;99.90;;;;;;6183238;23;20373;-74
2022/02/11 12:40:13;;;;;;;110.07;55.25;;;11.30;99.90;;;;;;6183446;23;20007;-74
2022/02/11 12:42:44;;;;;;;106.25;54.85;;;11.30;99.90;;;;;;6183356;23;20001;-74
2022/02/11 12:45:20;;;;;;;109.32;55.42;;;11.30;99.90;;;;;;6183364;23;20491;-74
2022/02/11 12:47:46;;;;;;;112.97;54.67;;;11.30;99.90;;;;;;6183207;23;20001;-74
2022/02/11 12:50:12;;;;;;;100.85;53.15;;;11.30;99.90;;;;;;6182230;23;20009;-74
2022/02/11 12:52:42;;;;;;;107.78;55.22;;;11.30;99.90;;;;;;6177568;23;20315;-74
2022/02/11 12:55:10;;;;;;;111.05;52.88;;;11.30;99.90;;;;;;6177584;23;20433;-73
2022/02/11 12:57:37;;;;;;;107.20;52.55;;;11.30;99.90;;;;;;6178496;23;20009;-74
2022/02/11 13:00:05;;;;;;;105.93;53.90;;;11.40;99.90;;;;;;6178863;23;20068;-73
2022/02/11 13:02:34;;;;;;;102.20;52.05;;;11.40;99.90;;;;;;6151392;23;20307;-73
2022/02/11 13:05:17;;;;;;;106.45;53.88;;;11.40;99.90;;;;;;6178603;23;20051;-74
2022/02/11 13:07:47;;;;;;;109.95;51.67;;;11.50;99.90;;;;;;6151581;23;20005;-73
2022/02/11 13:10:22;;;;;;;100.80;51.80;;;11.60;99.90;;;;;;6178929;23;20029;-73
2022/02/11 13:12:53;;;;;;;101.75;52.08;;;11.60;99.90;;;;;;6178875;23;20055;-73
2022/02/11 13:15:20;;;;;;;101.53;50.38;;;11.70;99.90;;;;;;6152320;23;20009;-74
2022/02/11 13:17:47;;;;;;;106.43;54.53;;;11.80;99.90;;;;;;6151385;23;20059;-74
2022/02/11 13:20:21;;;;;;;101.85;52.22;;;11.70;99.90;;;;;;6152546;23;20008;-74
2022/02/11 13:22:50;;;;;;;96.35;50.33;;;11.80;99.90;;;;;;6152444;23;20001;-74
2022/02/11 13:25:18;;;;;;;109.28;52.55;;;11.90;99.90;;;;;;6178097;23;20032;-73
2022/02/11 13:27:53;;;;;;;101.40;51.50;;;12.00;99.90;;;;;;6151308;23;20472;-73
2022/02/11 13:30:30;;;;;;;97.15;50.38;;;12.00;99.90;;;;;;6177995;23;20366;-73
2022/02/11 13:32:58;;;;;;;92.25;49.30;;;11.90;99.90;;;;;;6178270;23;20342;-73
2022/02/11 13:35:25;;;;;;;103.95;50.35;;;11.90;99.90;;;;;;6152662;23;20071;-73
2022/02/11 13:37:54;;;;;;;106.93;51.30;;;11.90;99.90;;;;;;6177762;23;20441;-73
2022/02/11 13:40:25;;;;;;;92.82;46.78;;;11.90;99.90;;;;;;6177781;23;20008;-74
2022/02/11 13:43:02;;;;;;;97.20;48.63;;;11.90;99.90;;;;;;6178371;23;20310;-74
2022/02/11 13:45:48;;;;;;;100.40;46.45;;;12.00;99.90;;;;;;6178672;23;20047;-74
2022/02/11 13:48:16;;;;;;;88.85;45.40;;;11.90;99.90;;;;;;6177848;23;20001;-74
2022/02/11 13:51:11;;;;;;;86.47;45.65;;;11.90;99.90;;;;;;6178242;23;20249;-74
2022/02/11 13:53:53;;;;;;;87.97;44.22;;;11.90;99.90;;;;;;6177652;23;20249;-74
2022/02/11 13:56:36;;;;;;;87.68;45.17;;;11.80;99.90;;;;;;6177852;23;20028;-74
2022/02/11 13:59:06;;;;;;;81.43;42.83;;;11.80;99.90;;;;;;6151734;23;20200;-74
2022/02/11 14:01:34;;;;;;;90.22;44.03;;;11.90;99.90;;;;;;6178470;23;20169;-74
2022/02/11 14:04:17;;;;;;;83.63;37.97;;;11.90;99.90;;;;;;6181611;23;20342;-74
2022/02/11 14:06:53;;;;;;;;;;;11.90;99.90;;;;;;6157245;23;20372;-74
2022/02/11 14:09:32;;;;;;;75.78;37.28;;;11.90;99.90;;;;;;6183081;23;19907;-74
2022/02/11 14:11:59;;;;;;;75.53;37.15;;;11.80;99.90;;;;;;6156853;23;20337;-74
2022/02/11 14:14:25;;;;;;;67.75;36.00;;;11.80;99.90;;;;;;6183110;23;20016;-74
2022/02/11 14:16:51;;;;;;;70.07;35.15;;;11.70;99.90;;;;;;6156827;23;20012;-74
2022/02/11 14:19:25;;;;;;;68.82;35.55;;;11.70;99.90;;;;;;6182940;23;20310;-74
2022/02/11 14:21:52;;;;;;;73.57;36.60;;;11.70;99.90;;;;;;6156579;23;20337;-74
2022/02/11 14:24:20;;;;;;;70.45;35.67;;;11.70;99.90;;;;;;6183328;23;20001;-74
2022/02/11 14:26:46;;;;;;;71.13;36.55;;;11.70;99.90;;;;;;6156630;23;20304;-74
2022/02/11 14:29:12;;;;;;;73.18;35.53;;;11.70;99.90;;;;;;6182197;23;20488;-74
2022/02/11 14:31:39;;;;;;;73.88;38.08;;;11.60;99.90;;;;;;6183788;23;20001;-74
2022/02/11 14:34:05;;;;;;;70.13;37.30;;;11.60;99.90;;;;;;6158443;23;20005;-74
2022/02/11 14:36:32;;;;;;;73.32;38.53;;;11.60;99.90;;;;;;6184360;23;20063;-74
2022/02/11 14:38:58;;;;;;;76.68;39.17;;;11.60;99.90;;;;;;6158518;23;20063;-74
2022/02/11 14:44:08;;;;;;;74.05;37.13;;;11.50;99.90;;;;;;6184815;23;20024;-74
2022/02/11 14:46:35;;;;;;;80.53;38.25;;;11.60;99.90;;;;;;6184682;23;20001;-74
2022/02/11 14:49:01;;;;;;;82.90;39.22;;;11.50;99.90;;;;;;6184728;23;20004;-74
2022/02/11 14:51:27;;;;;;;77.30;39.35;;;11.60;99.90;;;;;;6184494;23;20337;-74
2022/02/11 14:53:53;;;;;;;78.50;40.03;;;11.50;99.90;;;;;;6184498;23;20005;-74
2022/02/11 14:56:19;;;;;;;78.05;39.92;;;11.40;99.90;;;;;;6184676;23;19997;-74
2022/02/11 14:58:44;;;;;;;85.45;41.08;;;11.50;99.90;;;;;;6184491;23;20097;-73
2022/02/11 15:01:11;;;;;;;80.28;39.80;;;11.50;99.90;;;;;;6181992;23;20071;-73
2022/02/11 15:03:37;;;;;;;85.10;41.33;;;11.40;99.90;;;;;;6152492;23;20541;-74
2022/02/11 15:06:03;;;;;;;74.70;40.95;;;11.40;99.90;;;;;;6178027;23;20049;-74
2022/02/11 15:08:29;;;;;;;88.45;42.85;;;11.40;99.90;;;;;;6154425;23;20012;-74
2022/02/11 15:10:55;;;;;;;88.72;43.53;;;11.40;99.90;;;;;;6179055;23;20001;-74
2022/02/11 15:13:20;;;;;;;83.47;42.90;;;11.30;99.90;;;;;;6179296;23;20011;-74
2022/02/11 15:15:55;;;;;;;85.65;42.20;;;11.20;99.90;;;;;;6153914;23;20126;-75
2022/02/11 15:18:21;;;;;;;83.88;42.65;;;11.20;99.90;;;;;;6178189;23;20448;-74
2022/02/11 15:20:47;;;;;;;84.47;42.00;;;11.20;99.90;;;;;;6178327;23;20068;-74
2022/02/11 15:23:13;;;;;;;84.38;44.53;;;11.20;99.90;;;;;;6153910;23;20437;-75
2022/02/11 15:25:39;;;;;;;79.60;43.53;;;11.10;99.90;;;;;;6179309;23;20004;-74
2022/02/11 15:28:05;;;;;;;90.28;44.08;;;11.10;99.90;;;;;;6180133;23;20005;-75
2022/02/11 15:30:33;;;;;;;81.57;41.92;;;11.10;99.90;;;;;;6179069;23;20581;-74
2022/02/11 15:33:00;;;;;;;88.88;44.88;;;11.10;99.90;;;;;;6152790;23;20036;-74
2022/02/11 15:35:28;;;;;;;95.03;44.38;;;11.00;99.90;;;;;;6180020;23;20001;-74
2022/02/11 15:37:57;;;;;;;82.97;44.55;;;11.00;99.90;;;;;;6178942;23;20011;-74
2022/02/11 15:40:27;;;;;;;84.45;44.00;;;11.00;99.90;;;;;;6150908;23;20063;-74
2022/02/11 15:42:56;;;;;;;84.82;44.85;;;11.00;99.90;;;;;;6178668;23;20043;-74
2022/02/11 15:45:22;;;;;;;84.72;42.28;;;11.00;99.90;;;;;;6179535;23;20009;-74
2022/02/11 15:47:48;;;;;;;85.47;43.65;;;11.00;99.90;;;;;;6178854;23;20009;-74
2022/02/11 15:50:14;;;;;;;86.18;44.28;;;10.90;99.90;;;;;;6152792;23;20093;-73
2022/02/11 15:52:40;;;;;;;85.28;44.13;;;10.90;99.90;;;;;;6178675;23;20481;-73
2022/02/11 15:55:06;;;;;;;87.25;43.17;;;10.90;99.90;;;;;;6178539;23;20028;-73
2022/02/11 15:57:32;;;;;;;84.95;44.33;;;10.90;99.90;;;;;;6152900;23;20311;-73
2022/02/11 15:59:58;;;;;;;84.70;43.40;;;10.80;99.90;;;;;;6177763;23;20015;-80
2022/02/11 16:02:23;;;;;;;84.57;43.92;;;10.70;99.90;;;;;;6179128;23;20072;-80
2022/02/11 16:04:49;;;;;;;87.88;44.17;;;10.70;99.90;;;;;;6153326;23;20088;-74
2022/02/11 16:07:15;;;;;;;88.68;45.60;;;10.60;99.90;;;;;;6177787;23;20325;-73
2022/02/11 16:09:41;;;;;;;92.97;45.38;;;10.60;99.90;;;;;;6179318;23;20015;-73
2022/02/11 16:12:08;;;;;;;86.70;44.28;;;10.50;99.90;;;;;;6178569;23;20084;-74
2022/02/11 16:14:34;;;;;;;89.57;43.85;;;10.40;99.90;;;;;;6152072;23;20397;-75
2022/02/11 16:17:00;;;;;;;78.45;43.17;;;10.30;99.90;;;;;;6178438;23;20004;-74
2022/02/11 16:19:30;;;;;;;83.20;42.83;;;10.30;99.90;;;;;;6177374;23;19997;-74
2022/02/11 16:21:56;;;;;;;92.53;46.10;;;10.20;99.90;;;;;;6178379;23;20005;-74
2022/02/11 16:24:22;;;;;;;101.00;47.08;;;10.20;99.90;;;;;;6179601;23;20385;-73
2022/02/11 16:26:47;;;;;;;103.13;50.25;;;10.20;99.90;;;;;;6152019;23;20341;-75
2022/02/11 16:29:13;;;;;;;102.25;50.60;;;10.10;99.90;;;;;;6152658;23;20005;-75
2022/02/11 16:31:39;;;;;;;110.07;55.50;;;10.10;99.90;;;;;;6178477;23;20382;-75
2022/02/11 16:34:05;;;;;;;114.70;54.67;;;10.10;99.90;;;;;;6178497;23;20126;-74
2022/02/11 16:36:32;;;;;;;121.40;55.10;;;10.00;99.90;;;;;;6179341;23;20004;-74
2022/02/11 16:38:58;;;;;;;104.05;52.38;;;9.90;99.90;;;;;;6151812;23;20099;-74
2022/02/11 16:41:24;;;;;;;106.60;53.72;;;9.90;99.90;;;;;;6178151;23;19998;-74